createdAt,value
2019-03-26T00:00:53.248Z,3.70
2019-03-26T00:03:41.136Z,3.72
2019-03-26T00:06:09.796Z,3.27
2019-03-26T00:08:38.362Z,3.22
2019-03-26T00:11:06.921Z,4.33
2019-03-26T00:13:35.571Z,3.65
2019-03-26T00:16:04.135Z,3.22
2019-03-26T00:18:32.721Z,3.50
2019-03-26T00:21:01.210Z,3.77
2019-03-26T00:23:29.804Z,3.58
2019-03-26T00:25:58.384Z,3.55
2019-03-26T00:28:26.932Z,3.50
2019-03-26T00:30:58.104Z,3.50
2019-03-26T00:33:36.187Z,3.60
2019-03-26T00:35:56.861Z,4.17
2019-03-26T00:38:25.423Z,3.98
2019-03-26T00:40:53.907Z,4.12
2019-03-26T00:43:22.485Z,4.90
2019-03-26T00:45:51.250Z,4.45
2019-03-26T00:48:19.825Z,4.47
2019-03-26T00:50:48.404Z,4.83
2019-03-26T00:53:16.889Z,4.12
2019-03-26T00:55:45.464Z,3.85
2019-03-26T00:58:14.034Z,4.05
2019-03-26T01:00:44.392Z,3.62
2019-03-26T01:03:17.999Z,3.92
2019-03-26T01:05:46.668Z,3.58
2019-03-26T01:08:15.163Z,3.40
2019-03-26T01:10:43.658Z,3.90
2019-03-26T01:13:12.371Z,3.77
2019-03-26T01:15:41.006Z,3.70
2019-03-26T01:18:09.518Z,3.25
2019-03-26T01:20:38.317Z,3.62
2019-03-26T01:23:07.102Z,3.20
2019-03-26T01:25:36.011Z,4.00
2019-03-26T01:28:04.909Z,4.00
2019-03-26T01:30:33.590Z,3.90
2019-03-26T01:33:02.148Z,4.85
2019-03-26T01:35:30.704Z,3.92
2019-03-26T01:37:59.456Z,4.45
2019-03-26T01:40:28.013Z,4.00
2019-03-26T01:42:56.612Z,4.30
2019-03-26T01:45:25.165Z,5.00
2019-03-26T01:47:53.719Z,4.75
2019-03-26T01:50:22.216Z,4.33
2019-03-26T01:52:50.899Z,4.65
2019-03-26T01:55:19.529Z,4.33
2019-03-26T01:57:48.317Z,4.90
2019-03-26T02:00:16.942Z,5.05
2019-03-26T02:02:45.511Z,5.00
2019-03-26T02:05:14.187Z,5.03
2019-03-26T02:07:43.022Z,5.47
2019-03-26T02:10:11.950Z,5.60
2019-03-26T02:12:40.592Z,4.90
2019-03-26T02:15:10.997Z,4.92
2019-03-26T02:17:39.556Z,4.85
2019-03-26T02:20:08.477Z,3.95
2019-03-26T02:22:37.194Z,4.30
2019-03-26T02:25:05.911Z,3.75
2019-03-26T02:27:34.467Z,3.85
2019-03-26T02:30:03.110Z,3.72
2019-03-26T02:32:31.686Z,4.83
2019-03-26T02:35:16.223Z,4.15
2019-03-26T02:37:30.667Z,3.60
2019-03-26T02:39:59.329Z,4.35
2019-03-26T02:42:27.921Z,4.42
2019-03-26T02:44:56.507Z,4.45
2019-03-26T02:47:25.145Z,4.45
2019-03-26T02:49:53.797Z,4.35
2019-03-26T02:52:22.361Z,4.58
2019-03-26T02:54:51.079Z,4.42
2019-03-26T02:57:19.736Z,4.30
2019-03-26T02:59:48.280Z,4.05
2019-03-26T03:02:16.878Z,4.33
2019-03-26T03:04:45.728Z,4.22
2019-03-26T03:07:14.315Z,4.47
2019-03-26T03:09:42.949Z,4.03
2019-03-26T03:12:11.521Z,4.00
2019-03-26T03:14:40.103Z,3.72
2019-03-26T03:17:08.673Z,4.47
2019-03-26T03:19:37.289Z,4.83
2019-03-26T03:22:05.878Z,4.25
2019-03-26T03:24:34.507Z,4.47
2019-03-26T03:27:04.727Z,4.30
2019-03-26T03:29:33.317Z,4.47
2019-03-26T03:32:01.898Z,4.80
2019-03-26T03:34:30.458Z,4.47
2019-03-26T03:36:59.093Z,3.83
2019-03-26T03:39:27.847Z,5.42
2019-03-26T03:41:56.539Z,4.65
2019-03-26T03:44:25.021Z,5.30
2019-03-26T03:46:55.839Z,5.45
2019-03-26T03:49:27.545Z,5.47
2019-03-26T03:51:57.960Z,4.65
2019-03-26T03:54:27.608Z,4.10
2019-03-26T03:56:58.313Z,4.70
2019-03-26T03:59:29.049Z,4.73
2019-03-26T04:01:57.983Z,4.37
2019-03-26T04:04:26.587Z,4.33
2019-03-26T04:06:55.283Z,4.17
2019-03-26T04:09:23.842Z,4.60
2019-03-26T04:11:52.513Z,3.90
2019-03-26T04:14:21.070Z,4.20
2019-03-26T04:16:49.872Z,3.95
2019-03-26T04:19:18.501Z,4.62
2019-03-26T04:21:47.054Z,3.92
2019-03-26T04:24:15.632Z,3.55
2019-03-26T04:26:44.129Z,4.25
2019-03-26T04:29:12.883Z,5.22
2019-03-26T04:31:41.370Z,4.85
2019-03-26T04:34:09.869Z,4.80
2019-03-26T04:36:38.441Z,4.75
2019-03-26T04:39:08.088Z,4.67
2019-03-26T04:41:37.135Z,4.85
2019-03-26T04:44:05.684Z,6.87
2019-03-26T04:46:34.173Z,4.62
2019-03-26T04:49:02.680Z,6.30
2019-03-26T04:51:31.241Z,7.83
2019-03-26T04:53:59.963Z,7.90
2019-03-26T04:56:28.519Z,6.92
2019-03-26T04:58:57.136Z,5.50
2019-03-26T05:01:25.633Z,5.75
2019-03-26T05:03:54.338Z,4.90
2019-03-26T05:06:22.846Z,4.78
2019-03-26T05:08:51.469Z,4.15
2019-03-26T05:11:20.024Z,4.20
2019-03-26T05:13:48.820Z,4.75
2019-03-26T05:16:17.378Z,5.92
2019-03-26T05:18:45.969Z,4.83
2019-03-26T05:21:14.541Z,4.80
2019-03-26T05:23:43.085Z,4.08
2019-03-26T05:26:11.617Z,5.00
2019-03-26T05:28:40.164Z,4.45
2019-03-26T05:31:08.763Z,4.37
2019-03-26T05:33:37.313Z,5.05
2019-03-26T05:36:05.872Z,5.10
2019-03-26T05:38:34.449Z,4.70
2019-03-26T05:41:03.138Z,5.12
2019-03-26T05:43:31.881Z,5.97
2019-03-26T05:46:00.364Z,5.28
2019-03-26T05:48:28.923Z,4.85
2019-03-26T05:50:57.506Z,5.08
2019-03-26T05:53:25.991Z,5.25
2019-03-26T05:55:54.658Z,5.47
2019-03-26T05:58:23.296Z,5.30
2019-03-26T06:00:51.938Z,5.30
2019-03-26T06:03:20.533Z,5.70
2019-03-26T06:05:49.147Z,6.20
2019-03-26T06:08:17.749Z,5.55
2019-03-26T06:10:46.321Z,5.90
2019-03-26T06:13:14.860Z,5.05
2019-03-26T06:15:43.446Z,5.28
2019-03-26T06:18:11.928Z,5.28
2019-03-26T06:20:40.439Z,5.55
2019-03-26T06:23:09.001Z,4.90
2019-03-26T06:25:37.733Z,5.78
2019-03-26T06:28:06.420Z,5.83
2019-03-26T06:30:35.045Z,5.78
2019-03-26T06:33:03.696Z,4.65
2019-03-26T06:35:32.297Z,4.80
2019-03-26T06:38:00.843Z,4.08
2019-03-26T06:40:29.525Z,4.92
2019-03-26T06:42:58.049Z,4.33
2019-03-26T06:45:26.672Z,3.35
2019-03-26T06:47:55.365Z,3.45
2019-03-26T06:50:23.928Z,3.77
2019-03-26T06:52:52.507Z,3.30
2019-03-26T06:55:21.132Z,3.20
2019-03-26T06:57:49.783Z,3.12
2019-03-26T07:00:29.490Z,3.95
2019-03-26T07:02:59.669Z,3.33
2019-03-26T07:05:28.233Z,3.37
2019-03-26T07:07:56.877Z,3.30
2019-03-26T07:10:27.919Z,7.25
2019-03-26T07:12:57.393Z,4.78
2019-03-26T07:15:25.980Z,3.10
2019-03-26T07:17:54.799Z,5.00
2019-03-26T07:20:23.499Z,4.60
2019-03-26T07:22:52.217Z,5.22
2019-03-26T07:25:20.902Z,7.28
2019-03-26T07:27:49.557Z,8.08
2019-03-26T07:30:21.192Z,5.85
2019-03-26T07:35:17.534Z,3.42
2019-03-26T07:37:46.134Z,4.30
2019-03-26T07:40:15.339Z,3.08
2019-03-26T07:42:43.899Z,3.30
2019-03-26T07:45:12.728Z,2.92
2019-03-26T07:47:41.368Z,2.62
2019-03-26T07:50:10.106Z,2.40
2019-03-26T07:52:38.696Z,4.25
2019-03-26T07:55:08.729Z,2.92
2019-03-26T07:57:37.367Z,2.80
2019-03-26T08:00:10.585Z,2.83
2019-03-26T08:02:39.290Z,2.60
2019-03-26T08:05:08.393Z,2.65
2019-03-26T08:07:37.812Z,2.80
2019-03-26T08:10:08.207Z,2.33
2019-03-26T08:12:36.778Z,2.42
2019-03-26T08:15:07.481Z,2.83
2019-03-26T08:17:36.056Z,2.52
2019-03-26T08:20:06.926Z,2.70
2019-03-26T08:22:35.554Z,2.50
2019-03-26T08:25:07.069Z,2.37
2019-03-26T08:27:35.769Z,2.60
2019-03-26T08:30:06.099Z,2.67
2019-03-26T08:32:36.913Z,2.65
2019-03-26T08:35:06.089Z,2.60
2019-03-26T08:37:34.736Z,3.77
2019-03-26T08:40:04.758Z,2.70
2019-03-26T08:42:33.237Z,5.60
2019-03-26T08:45:01.727Z,3.58
2019-03-26T08:47:30.517Z,2.55
2019-03-26T08:49:59.145Z,2.40
2019-03-26T08:52:27.712Z,2.45
2019-03-26T08:54:56.403Z,2.27
2019-03-26T08:57:24.968Z,2.62
2019-03-26T08:59:53.610Z,2.87
2019-03-26T09:02:23.127Z,2.60
2019-03-26T09:04:51.789Z,2.47
2019-03-26T09:07:20.446Z,2.00
2019-03-26T09:09:49.091Z,2.90
2019-03-26T09:12:17.738Z,2.70
2019-03-26T09:14:46.288Z,2.40
2019-03-26T09:17:14.855Z,2.22
2019-03-26T09:19:43.590Z,2.58
2019-03-26T09:22:12.076Z,2.40
2019-03-26T09:24:40.613Z,2.40
2019-03-26T09:27:09.232Z,2.40
2019-03-26T09:29:37.730Z,2.40
2019-03-26T09:32:06.291Z,2.42
2019-03-26T09:34:34.789Z,2.42
2019-03-26T09:37:03.443Z,2.90
2019-03-26T09:39:32.090Z,2.62
2019-03-26T09:42:00.819Z,2.55
2019-03-26T09:44:29.478Z,2.40
2019-03-26T09:46:58.098Z,3.52
2019-03-26T09:49:26.677Z,2.77
2019-03-26T09:51:55.259Z,2.95
2019-03-26T09:54:23.975Z,2.75
2019-03-26T09:56:52.684Z,2.60
2019-03-26T09:59:21.176Z,2.80
2019-03-26T10:01:49.845Z,2.77
2019-03-26T10:04:18.340Z,2.87
2019-03-26T10:06:46.896Z,2.40
2019-03-26T10:09:15.575Z,2.75
2019-03-26T10:11:44.129Z,3.20
2019-03-26T10:14:12.718Z,2.85
2019-03-26T10:16:41.281Z,3.00
2019-03-26T10:19:09.923Z,3.15
2019-03-26T10:21:38.641Z,3.20
2019-03-26T10:24:07.217Z,3.52
2019-03-26T10:26:35.800Z,3.00
2019-03-26T10:29:18.765Z,2.72
2019-03-26T10:31:34.633Z,2.87
2019-03-26T10:34:03.262Z,2.98
2019-03-26T10:36:32.375Z,3.33
2019-03-26T10:39:05.279Z,3.92
2019-03-26T10:41:31.235Z,3.30
2019-03-26T10:43:59.789Z,3.33
2019-03-26T10:46:28.364Z,3.70
2019-03-26T10:48:56.921Z,3.95
2019-03-26T10:51:25.502Z,3.58
2019-03-26T10:53:54.073Z,3.95
2019-03-26T10:56:22.635Z,3.58
2019-03-26T10:58:51.170Z,3.62
2019-03-26T11:01:19.732Z,2.90
2019-03-26T11:03:48.310Z,3.47
2019-03-26T11:06:16.858Z,3.30
2019-03-26T11:08:45.403Z,3.20
2019-03-26T11:11:14.007Z,3.30
2019-03-26T11:13:42.630Z,3.77
2019-03-26T11:16:11.220Z,3.50
2019-03-26T11:18:39.734Z,3.70
2019-03-26T11:21:08.459Z,3.42
2019-03-26T11:23:37.026Z,4.35
2019-03-26T11:26:05.721Z,4.15
2019-03-26T11:28:34.235Z,3.58
2019-03-26T11:31:02.875Z,3.65
2019-03-26T11:33:31.497Z,3.55
2019-03-26T11:36:26.573Z,3.40
2019-03-26T11:38:55.128Z,3.72
2019-03-26T11:41:23.812Z,3.00
2019-03-26T11:43:52.432Z,3.35
2019-03-26T11:46:20.914Z,3.40
2019-03-26T11:48:49.415Z,3.52
2019-03-26T11:51:17.981Z,3.42
2019-03-26T11:53:46.561Z,3.10
2019-03-26T11:56:15.128Z,3.40
2019-03-26T11:58:43.725Z,3.52
2019-03-26T12:01:12.372Z,3.37
2019-03-26T12:03:40.875Z,3.40
2019-03-26T12:06:10.281Z,3.62
2019-03-26T12:08:38.915Z,3.27
2019-03-26T12:11:07.407Z,3.33
2019-03-26T12:13:35.925Z,3.40
2019-03-26T12:16:04.735Z,3.67
2019-03-26T12:18:33.382Z,3.67
2019-03-26T12:21:01.943Z,3.17
2019-03-26T12:23:30.431Z,3.02
2019-03-26T12:25:59.131Z,3.33
2019-03-26T12:28:27.629Z,3.40
2019-03-26T12:30:56.212Z,3.25
2019-03-26T12:33:24.696Z,3.12
2019-03-26T12:35:53.327Z,3.45
2019-03-26T12:38:21.963Z,3.60
2019-03-26T12:40:50.602Z,3.10
2019-03-26T12:43:19.357Z,3.60
2019-03-26T12:45:47.907Z,3.27
2019-03-26T12:48:16.469Z,3.05
2019-03-26T12:50:45.117Z,3.27
2019-03-26T12:53:13.745Z,3.10
2019-03-26T12:55:42.397Z,3.47
2019-03-26T12:58:11.028Z,3.27
2019-03-26T13:00:39.589Z,2.80
2019-03-26T13:03:08.315Z,3.10
2019-03-26T13:05:36.868Z,3.05
2019-03-26T13:08:05.484Z,3.40
2019-03-26T13:10:34.065Z,3.20
2019-03-26T13:13:02.612Z,3.10
2019-03-26T13:15:31.281Z,3.00
2019-03-26T13:17:59.889Z,3.10
2019-03-26T13:20:28.474Z,2.60
2019-03-26T13:22:57.189Z,3.00
2019-03-26T13:25:25.776Z,3.22
2019-03-26T13:27:54.411Z,3.08
2019-03-26T13:30:23.046Z,3.45
2019-03-26T13:32:51.577Z,3.22
2019-03-26T13:35:20.222Z,3.45
2019-03-26T13:37:48.829Z,3.40
2019-03-26T13:40:26.990Z,3.75
2019-03-26T13:42:47.893Z,3.95
2019-03-26T13:45:16.614Z,3.55
2019-03-26T13:47:45.099Z,3.83
2019-03-26T13:50:14.122Z,3.67
2019-03-26T13:52:42.764Z,4.03
2019-03-26T13:55:11.449Z,3.45
2019-03-26T13:57:40.011Z,3.80
2019-03-26T14:00:09.743Z,3.62
2019-03-26T14:02:38.453Z,3.62
2019-03-26T14:05:10.020Z,3.50
2019-03-26T14:07:38.542Z,4.35
2019-03-26T14:10:08.112Z,3.90
2019-03-26T14:12:36.832Z,3.95
2019-03-26T14:15:06.722Z,3.17
2019-03-26T14:17:35.208Z,3.83
2019-03-26T14:20:05.844Z,3.92
2019-03-26T14:22:34.402Z,3.80
2019-03-26T14:25:03.087Z,4.10
2019-03-26T14:27:31.644Z,4.05
2019-03-26T14:30:00.341Z,3.75
2019-03-26T14:32:28.988Z,3.92
2019-03-26T14:34:57.561Z,3.85
2019-03-26T14:37:26.283Z,3.85
2019-03-26T14:39:54.769Z,3.35
2019-03-26T14:42:23.394Z,3.50
2019-03-26T14:44:52.040Z,3.33
2019-03-26T14:47:20.600Z,3.35
2019-03-26T14:49:49.128Z,2.95
2019-03-26T14:52:17.779Z,3.37
2019-03-26T14:54:46.333Z,3.50
2019-03-26T14:57:14.973Z,2.33
2019-03-26T14:59:43.548Z,3.10
2019-03-26T15:02:12.192Z,3.40
2019-03-26T15:04:40.776Z,3.27
2019-03-26T15:07:09.332Z,3.10
2019-03-26T15:09:37.890Z,3.12
2019-03-26T15:12:07.201Z,2.75
2019-03-26T15:14:35.721Z,2.87
2019-03-26T15:17:04.293Z,2.40
2019-03-26T15:19:32.909Z,2.30
2019-03-26T15:22:01.568Z,2.50
2019-03-26T15:24:30.193Z,2.45
2019-03-26T15:26:58.763Z,2.20
2019-03-26T15:29:27.313Z,3.00
2019-03-26T15:31:55.860Z,2.50
2019-03-26T15:34:35.646Z,2.12
2019-03-26T15:36:54.583Z,2.40
2019-03-26T15:39:23.266Z,2.47
2019-03-26T15:41:51.750Z,2.50
2019-03-26T15:44:20.879Z,2.60
2019-03-26T15:46:49.612Z,2.45
2019-03-26T15:49:18.162Z,2.40
2019-03-26T15:51:46.733Z,2.35
2019-03-26T15:54:15.291Z,2.10
2019-03-26T15:56:43.971Z,2.30
2019-03-26T15:59:12.518Z,2.67
2019-03-26T16:01:41.132Z,2.00
2019-03-26T16:04:09.787Z,2.50
2019-03-26T16:06:38.356Z,2.17
2019-03-26T16:09:08.494Z,2.37
2019-03-26T16:11:36.982Z,2.50
2019-03-26T16:14:05.614Z,2.80
2019-03-26T16:16:34.266Z,2.83
2019-03-26T16:19:02.888Z,2.30
2019-03-26T16:21:31.655Z,3.72
2019-03-26T16:24:00.344Z,2.70
2019-03-26T16:26:28.849Z,2.50
2019-03-26T16:28:57.488Z,2.20
2019-03-26T16:31:26.117Z,2.37
2019-03-26T16:33:54.771Z,2.40
2019-03-26T16:36:23.352Z,3.02
2019-03-26T16:38:51.921Z,2.20
2019-03-26T16:41:20.569Z,2.65
2019-03-26T16:43:49.120Z,2.25
2019-03-26T16:46:17.650Z,2.50
2019-03-26T16:48:46.209Z,2.62
2019-03-26T16:51:14.845Z,2.72
2019-03-26T16:53:43.425Z,3.00
2019-03-26T16:56:12.055Z,2.22
2019-03-26T16:58:40.650Z,2.72
2019-03-26T17:01:09.217Z,2.42
2019-03-26T17:03:37.786Z,2.37
2019-03-26T17:06:06.441Z,2.70
2019-03-26T17:08:34.999Z,2.70
2019-03-26T17:11:03.739Z,2.47
2019-03-26T17:13:32.356Z,2.62
2019-03-26T17:16:00.870Z,2.75
2019-03-26T17:18:29.583Z,3.02
2019-03-26T17:20:58.209Z,2.02
2019-03-26T17:23:26.949Z,2.25
2019-03-26T17:25:55.441Z,2.30
2019-03-26T17:28:23.945Z,2.77
2019-03-26T17:30:52.467Z,2.70
2019-03-26T17:33:21.122Z,2.80
2019-03-26T17:35:50.368Z,2.30
2019-03-26T17:38:18.928Z,2.55
2019-03-26T17:40:47.487Z,2.55
2019-03-26T17:43:16.096Z,2.83
2019-03-26T17:45:44.734Z,2.83
2019-03-26T17:48:13.409Z,2.35
2019-03-26T17:50:41.964Z,2.67
2019-03-26T17:53:10.519Z,2.65
2019-03-26T17:55:39.173Z,3.75
2019-03-26T17:58:07.740Z,3.27
2019-03-26T18:00:42.029Z,2.90
2019-03-26T18:03:10.960Z,2.95
2019-03-26T18:05:39.661Z,3.00
2019-03-26T18:08:08.317Z,3.02
2019-03-26T18:10:36.887Z,2.67
2019-03-26T18:13:05.567Z,2.30
2019-03-26T18:15:34.656Z,2.58
2019-03-26T18:18:03.222Z,2.37
2019-03-26T18:20:33.074Z,3.00
2019-03-26T18:23:01.889Z,2.60
2019-03-26T18:25:30.393Z,2.92
2019-03-26T18:27:59.089Z,2.75
2019-03-26T18:30:27.785Z,3.12
2019-03-26T18:32:56.322Z,2.70
2019-03-26T18:35:24.882Z,3.02
2019-03-26T18:37:53.469Z,2.72
2019-03-26T18:40:22.023Z,2.80
2019-03-26T18:42:50.585Z,3.12
2019-03-26T18:45:19.121Z,2.58
2019-03-26T18:47:47.918Z,2.95
2019-03-26T18:50:17.012Z,2.72
2019-03-26T18:52:45.584Z,2.75
2019-03-26T18:55:14.487Z,2.80
2019-03-26T18:57:43.138Z,3.10
2019-03-26T19:00:14.184Z,2.90
2019-03-26T19:02:42.916Z,3.27
2019-03-26T19:05:11.741Z,3.22
2019-03-26T19:07:40.476Z,3.22
2019-03-26T19:10:14.856Z,3.15
2019-03-26T19:12:56.233Z,3.65
2019-03-26T19:15:13.773Z,3.85
2019-03-26T19:17:42.345Z,3.35
2019-03-26T19:20:11.044Z,3.00
2019-03-26T19:22:39.676Z,3.00
2019-03-26T19:25:08.430Z,2.67
2019-03-26T19:27:36.913Z,3.02
2019-03-26T19:30:07.683Z,2.92
2019-03-26T19:32:36.195Z,2.97
2019-03-26T19:35:06.616Z,2.65
2019-03-26T19:37:35.172Z,3.22
2019-03-26T19:40:05.575Z,2.62
2019-03-26T19:42:34.215Z,3.42
2019-03-26T19:45:03.015Z,3.17
2019-03-26T19:47:31.611Z,2.85
2019-03-26T19:50:00.340Z,3.20
2019-03-26T19:52:28.964Z,3.50
2019-03-26T19:55:00.684Z,3.08
2019-03-26T19:57:27.824Z,3.52
2019-03-26T19:59:56.410Z,3.40
2019-03-26T20:02:24.974Z,3.10
2019-03-26T20:04:53.520Z,3.50
2019-03-26T20:07:22.061Z,3.20
2019-03-26T20:09:50.617Z,3.42
2019-03-26T20:12:19.274Z,3.10
2019-03-26T20:14:47.916Z,3.65
2019-03-26T20:17:16.556Z,3.87
2019-03-26T20:19:45.198Z,3.70
2019-03-26T20:22:14.802Z,3.95
2019-03-26T20:24:43.401Z,4.12
2019-03-26T20:27:12.023Z,3.70
2019-03-26T20:29:40.508Z,3.92
2019-03-26T20:32:09.084Z,3.27
2019-03-26T20:34:37.714Z,3.50
2019-03-26T20:37:06.445Z,3.90
2019-03-26T20:39:35.137Z,3.67
2019-03-26T20:42:03.628Z,3.62
2019-03-26T20:44:32.159Z,3.50
2019-03-26T20:47:00.725Z,3.77
2019-03-26T20:49:29.350Z,3.47
2019-03-26T20:51:58.163Z,3.77
2019-03-26T20:54:26.655Z,3.83
2019-03-26T20:56:55.316Z,4.20
2019-03-26T20:59:24.377Z,4.50
2019-03-26T21:01:52.884Z,3.52
2019-03-26T21:04:21.446Z,3.67
2019-03-26T21:06:50.071Z,4.08
2019-03-26T21:09:18.662Z,4.30
2019-03-26T21:11:47.291Z,3.98
2019-03-26T21:14:16.171Z,3.98
2019-03-26T21:16:44.733Z,3.98
2019-03-26T21:19:13.329Z,3.85
2019-03-26T21:21:42.119Z,4.58
2019-03-26T21:24:10.617Z,4.03
2019-03-26T21:26:39.221Z,4.08
2019-03-26T21:29:07.767Z,4.12
2019-03-26T21:31:36.348Z,4.28
2019-03-26T21:34:05.003Z,4.25
2019-03-26T21:36:33.713Z,4.22
2019-03-26T21:39:02.444Z,4.50
2019-03-26T21:41:30.931Z,4.58
2019-03-26T21:44:04.510Z,5.45
2019-03-26T21:46:30.053Z,6.35
2019-03-26T21:48:58.679Z,6.22
2019-03-26T21:51:27.467Z,5.97
2019-03-26T21:53:56.103Z,5.60
2019-03-26T21:56:24.605Z,5.60
2019-03-26T21:58:53.112Z,5.22
2019-03-26T22:01:21.668Z,5.45
2019-03-26T22:03:50.250Z,5.15
2019-03-26T22:06:18.818Z,5.50
2019-03-26T22:08:47.459Z,4.80
2019-03-26T22:11:16.053Z,4.92
2019-03-26T22:13:44.665Z,5.05
2019-03-26T22:16:13.336Z,4.92
2019-03-26T22:18:41.965Z,4.30
2019-03-26T22:21:10.596Z,4.97
2019-03-26T22:23:39.249Z,5.40
2019-03-26T22:26:07.799Z,6.05
2019-03-26T22:28:36.384Z,4.75
2019-03-26T22:31:04.951Z,5.30
2019-03-26T22:33:33.521Z,5.90
2019-03-26T22:36:02.156Z,7.03
2019-03-26T22:38:30.797Z,5.92
2019-03-26T22:40:59.379Z,5.47
2019-03-26T22:43:27.856Z,6.37
2019-03-26T22:45:56.456Z,5.42
2019-03-26T22:48:25.149Z,6.95
2019-03-26T22:50:53.716Z,6.67
2019-03-26T22:53:22.226Z,8.13
2019-03-26T22:55:50.918Z,7.80
2019-03-26T22:58:19.413Z,8.03
2019-03-26T23:00:48.899Z,7.67
2019-03-26T23:03:17.463Z,8.73
2019-03-26T23:05:45.963Z,7.83
2019-03-26T23:08:14.463Z,7.95
2019-03-26T23:10:43.101Z,6.97
2019-03-26T23:13:11.754Z,7.22
2019-03-26T23:15:40.466Z,7.03
2019-03-26T23:18:09.113Z,7.17
2019-03-26T23:20:40.465Z,6.50
2019-03-26T23:23:09.051Z,6.97
2019-03-26T23:25:38.451Z,7.20
2019-03-26T23:28:07.006Z,6.95
2019-03-26T23:30:35.720Z,7.10
2019-03-26T23:33:04.373Z,6.30
2019-03-26T23:35:35.429Z,7.00
2019-03-26T23:38:04.066Z,6.62
2019-03-26T23:40:32.698Z,6.95
2019-03-26T23:43:01.418Z,7.10
2019-03-26T23:45:29.976Z,7.20
2019-03-26T23:47:58.583Z,7.40
2019-03-26T23:50:27.129Z,7.15
2019-03-26T23:52:55.680Z,7.45
2019-03-26T23:55:24.327Z,7.15
2019-03-26T23:57:52.880Z,7.25
